sensor_id;sensor_type;location;lat;lon;timestamp;P1;durP1;ratioP1;P2;durP2;ratioP2
422;SDS011;198;48.752;9.180;2023-05-07T00:01:55;3.20;;;2.00;;
422;SDS011;198;48.752;9.180;2023-05-07T00:04:21;2.83;;;1.57;;
422;SDS011;198;48.752;9.180;2023-05-07T00:06:46;3.00;;;1.87;;
422;SDS011;198;48.752;9.180;2023-05-07T00:09:12;1.27;;;1.10;;
422;SDS011;198;48.752;9.180;2023-05-07T00:11:37;7.23;;;2.53;;
422;SDS011;198;48.752;9.180;2023-05-07T00:14:03;2.50;;;1.60;;
422;SDS011;198;48.752;9.180;2023-05-07T00:16:28;2.53;;;1.90;;
422;SDS011;198;48.752;9.180;2023-05-07T00:18:54;1.87;;;1.77;;
422;SDS011;198;48.752;9.180;2023-05-07T00:21:19;6.83;;;1.60;;
422;SDS011;198;48.752;9.180;2023-05-07T00:23:46;2.37;;;1.43;;
422;SDS011;198;48.752;9.180;2023-05-07T00:26:12;1.77;;;1.50;;
422;SDS011;198;48.752;9.180;2023-05-07T00:28:37;6.20;;;2.10;;
422;SDS011;198;48.752;9.180;2023-05-07T00:31:03;2.57;;;1.53;;
422;SDS011;198;48.752;9.180;2023-05-07T00:33:28;1.43;;;1.33;;
422;SDS011;198;48.752;9.180;2023-05-07T00:35:54;1.67;;;1.57;;
422;SDS011;198;48.752;9.180;2023-05-07T00:38:19;2.80;;;1.50;;
422;SDS011;198;48.752;9.180;2023-05-07T00:40:45;2.13;;;1.50;;
422;SDS011;198;48.752;9.180;2023-05-07T00:43:11;5.00;;;1.63;;
422;SDS011;198;48.752;9.180;2023-05-07T00:45:37;2.57;;;1.77;;
422;SDS011;198;48.752;9.180;2023-05-07T00:48:03;2.10;;;1.57;;
422;SDS011;198;48.752;9.180;2023-05-07T00:50:29;2.87;;;2.17;;
422;SDS011;198;48.752;9.180;2023-05-07T00:52:55;1.70;;;1.40;;
422;SDS011;198;48.752;9.180;2023-05-07T00:55:22;1.10;;;1.00;;
422;SDS011;198;48.752;9.180;2023-05-07T00:57:48;11.13;;;2.40;;
422;SDS011;198;48.752;9.180;2023-05-07T01:00:15;16.87;;;1.70;;
422;SDS011;198;48.752;9.180;2023-05-07T01:02:41;3.70;;;1.53;;
422;SDS011;198;48.752;9.180;2023-05-07T01:05:08;1.50;;;1.20;;
422;SDS011;198;48.752;9.180;2023-05-07T01:07:36;2.93;;;1.47;;
422;SDS011;198;48.752;9.180;2023-05-07T01:10:03;4.27;;;2.07;;
422;SDS011;198;48.752;9.180;2023-05-07T01:12:30;4.50;;;2.10;;
422;SDS011;198;48.752;9.180;2023-05-07T01:14:56;2.17;;;1.80;;
422;SDS011;198;48.752;9.180;2023-05-07T01:17:22;3.60;;;1.70;;
422;SDS011;198;48.752;9.180;2023-05-07T01:19:48;3.00;;;1.80;;
422;SDS011;198;48.752;9.180;2023-05-07T01:22:15;1.40;;;1.30;;
422;SDS011;198;48.752;9.180;2023-05-07T01:24:45;2.00;;;1.10;;
422;SDS011;198;48.752;9.180;2023-05-07T01:27:11;2.33;;;1.47;;
422;SDS011;198;48.752;9.180;2023-05-07T01:29:37;1.70;;;1.27;;
422;SDS011;198;48.752;9.180;2023-05-07T01:32:02;5.17;;;1.10;;
422;SDS011;198;48.752;9.180;2023-05-07T01:34:30;4.97;;;1.80;;
422;SDS011;198;48.752;9.180;2023-05-07T01:36:57;2.57;;;1.40;;
422;SDS011;198;48.752;9.180;2023-05-07T01:39:24;5.90;;;2.20;;
422;SDS011;198;48.752;9.180;2023-05-07T01:41:51;1.60;;;1.50;;
422;SDS011;198;48.752;9.180;2023-05-07T01:44:19;5.83;;;1.80;;
422;SDS011;198;48.752;9.180;2023-05-07T01:46:45;7.57;;;1.93;;
422;SDS011;198;48.752;9.180;2023-05-07T01:49:12;1.73;;;1.60;;
422;SDS011;198;48.752;9.180;2023-05-07T01:51:38;2.23;;;1.70;;
422;SDS011;198;48.752;9.180;2023-05-07T01:54:04;3.70;;;1.40;;
422;SDS011;198;48.752;9.180;2023-05-07T01:56:31;1.63;;;1.43;;
422;SDS011;198;48.752;9.180;2023-05-07T01:58:57;2.70;;;1.67;;
422;SDS011;198;48.752;9.180;2023-05-07T02:01:22;2.60;;;1.70;;
422;SDS011;198;48.752;9.180;2023-05-07T02:03:48;3.40;;;1.50;;
422;SDS011;198;48.752;9.180;2023-05-07T02:06:13;1.73;;;1.40;;
422;SDS011;198;48.752;9.180;2023-05-07T02:08:39;4.10;;;1.30;;
422;SDS011;198;48.752;9.180;2023-05-07T02:11:04;1.43;;;1.20;;
422;SDS011;198;48.752;9.180;2023-05-07T02:13:31;1.57;;;1.40;;
422;SDS011;198;48.752;9.180;2023-05-07T02:15:58;1.80;;;1.60;;
422;SDS011;198;48.752;9.180;2023-05-07T02:18:24;3.33;;;1.70;;
422;SDS011;198;48.752;9.180;2023-05-07T02:20:49;2.77;;;1.57;;
422;SDS011;198;48.752;9.180;2023-05-07T02:23:15;3.90;;;1.53;;
422;SDS011;198;48.752;9.180;2023-05-07T02:25:40;4.20;;;1.20;;
422;SDS011;198;48.752;9.180;2023-05-07T02:28:06;2.60;;;1.47;;
422;SDS011;198;48.752;9.180;2023-05-07T02:30:31;1.80;;;1.57;;
422;SDS011;198;48.752;9.180;2023-05-07T02:32:57;1.80;;;1.30;;
422;SDS011;198;48.752;9.180;2023-05-07T02:35:24;2.80;;;1.80;;
422;SDS011;198;48.752;9.180;2023-05-07T02:37:50;1.73;;;1.33;;
422;SDS011;198;48.752;9.180;2023-05-07T02:40:15;2.07;;;1.30;;
422;SDS011;198;48.752;9.180;2023-05-07T02:42:41;1.97;;;1.57;;
422;SDS011;198;48.752;9.180;2023-05-07T02:45:07;1.97;;;1.60;;
422;SDS011;198;48.752;9.180;2023-05-07T02:47:32;1.70;;;1.37;;
422;SDS011;198;48.752;9.180;2023-05-07T02:49:58;1.60;;;1.50;;
422;SDS011;198;48.752;9.180;2023-05-07T02:52:23;2.10;;;1.70;;
422;SDS011;198;48.752;9.180;2023-05-07T02:54:49;5.90;;;1.93;;
422;SDS011;198;48.752;9.180;2023-05-07T02:57:15;8.40;;;1.43;;
422;SDS011;198;48.752;9.180;2023-05-07T02:59:41;6.43;;;1.70;;
422;SDS011;198;48.752;9.180;2023-05-07T03:02:07;5.10;;;2.23;;
422;SDS011;198;48.752;9.180;2023-05-07T03:04:33;5.20;;;2.10;;
422;SDS011;198;48.752;9.180;2023-05-07T03:06:58;3.43;;;2.20;;
422;SDS011;198;48.752;9.180;2023-05-07T03:09:24;5.17;;;1.97;;
422;SDS011;198;48.752;9.180;2023-05-07T03:11:49;2.17;;;1.80;;
422;SDS011;198;48.752;9.180;2023-05-07T03:14:15;1.90;;;1.80;;
422;SDS011;198;48.752;9.180;2023-05-07T03:16:40;1.63;;;1.50;;
422;SDS011;198;48.752;9.180;2023-05-07T03:19:06;17.23;;;2.23;;
422;SDS011;198;48.752;9.180;2023-05-07T03:21:31;2.10;;;1.63;;
422;SDS011;198;48.752;9.180;2023-05-07T03:23:58;1.30;;;1.30;;
422;SDS011;198;48.752;9.180;2023-05-07T03:26:24;2.43;;;2.00;;
422;SDS011;198;48.752;9.180;2023-05-07T03:28:50;3.03;;;1.87;;
422;SDS011;198;48.752;9.180;2023-05-07T03:31:16;1.80;;;1.30;;
422;SDS011;198;48.752;9.180;2023-05-07T03:33:51;1.60;;;1.60;;
422;SDS011;198;48.752;9.180;2023-05-07T03:36:18;2.17;;;1.30;;
422;SDS011;198;48.752;9.180;2023-05-07T03:38:43;2.80;;;2.03;;
422;SDS011;198;48.752;9.180;2023-05-07T03:41:09;2.20;;;1.47;;
422;SDS011;198;48.752;9.180;2023-05-07T03:43:34;3.90;;;1.67;;
422;SDS011;198;48.752;9.180;2023-05-07T03:46:00;2.13;;;1.40;;
422;SDS011;198;48.752;9.180;2023-05-07T03:48:25;4.03;;;2.00;;
422;SDS011;198;48.752;9.180;2023-05-07T03:50:51;2.03;;;1.70;;
422;SDS011;198;48.752;9.180;2023-05-07T03:53:16;3.57;;;1.70;;
422;SDS011;198;48.752;9.180;2023-05-07T03:55:42;5.30;;;1.87;;
422;SDS011;198;48.752;9.180;2023-05-07T03:58:07;6.30;;;3.57;;
422;SDS011;198;48.752;9.180;2023-05-07T04:00:33;2.73;;;2.40;;
422;SDS011;198;48.752;9.180;2023-05-07T04:03:03;2.63;;;2.20;;
422;SDS011;198;48.752;9.180;2023-05-07T04:05:29;3.60;;;2.40;;
422;SDS011;198;48.752;9.180;2023-05-07T04:07:55;7.40;;;2.00;;
422;SDS011;198;48.752;9.180;2023-05-07T04:10:21;5.13;;;2.57;;
422;SDS011;198;48.752;9.180;2023-05-07T04:12:46;9.73;;;1.80;;
422;SDS011;198;48.752;9.180;2023-05-07T04:15:12;2.90;;;1.83;;
422;SDS011;198;48.752;9.180;2023-05-07T04:17:37;8.30;;;1.90;;
422;SDS011;198;48.752;9.180;2023-05-07T04:20:03;2.87;;;1.73;;
422;SDS011;198;48.752;9.180;2023-05-07T04:22:29;3.13;;;1.60;;
422;SDS011;198;48.752;9.180;2023-05-07T04:24:55;3.27;;;2.33;;
422;SDS011;198;48.752;9.180;2023-05-07T04:27:21;3.20;;;2.17;;
422;SDS011;198;48.752;9.180;2023-05-07T04:29:46;3.40;;;1.77;;
422;SDS011;198;48.752;9.180;2023-05-07T04:32:12;8.70;;;2.43;;
422;SDS011;198;48.752;9.180;2023-05-07T04:34:38;2.43;;;1.73;;
422;SDS011;198;48.752;9.180;2023-05-07T04:37:03;3.03;;;1.87;;
422;SDS011;198;48.752;9.180;2023-05-07T04:39:29;8.77;;;1.80;;
422;SDS011;198;48.752;9.180;2023-05-07T04:41:54;3.23;;;2.23;;
422;SDS011;198;48.752;9.180;2023-05-07T04:44:20;3.20;;;2.00;;
422;SDS011;198;48.752;9.180;2023-05-07T04:46:46;2.67;;;1.83;;
422;SDS011;198;48.752;9.180;2023-05-07T04:49:11;4.20;;;1.90;;
422;SDS011;198;48.752;9.180;2023-05-07T04:51:37;3.57;;;1.83;;
422;SDS011;198;48.752;9.180;2023-05-07T04:54:03;1.70;;;1.60;;
422;SDS011;198;48.752;9.180;2023-05-07T04:56:28;2.50;;;1.97;;
422;SDS011;198;48.752;9.180;2023-05-07T04:58:57;2.17;;;1.90;;
422;SDS011;198;48.752;9.180;2023-05-07T05:01:22;2.10;;;1.60;;
422;SDS011;198;48.752;9.180;2023-05-07T05:03:48;1.50;;;1.37;;
422;SDS011;198;48.752;9.180;2023-05-07T05:06:13;3.10;;;1.80;;
422;SDS011;198;48.752;9.180;2023-05-07T05:08:39;2.20;;;1.83;;
422;SDS011;198;48.752;9.180;2023-05-07T05:11:04;2.90;;;1.80;;
422;SDS011;198;48.752;9.180;2023-05-07T05:13:30;1.93;;;1.70;;
422;SDS011;198;48.752;9.180;2023-05-07T05:15:55;2.70;;;1.90;;
422;SDS011;198;48.752;9.180;2023-05-07T05:18:21;3.40;;;2.13;;
422;SDS011;198;48.752;9.180;2023-05-07T05:20:47;3.10;;;2.10;;
422;SDS011;198;48.752;9.180;2023-05-07T05:23:12;2.00;;;1.70;;
422;SDS011;198;48.752;9.180;2023-05-07T05:25:38;8.80;;;1.67;;
422;SDS011;198;48.752;9.180;2023-05-07T05:28:05;3.93;;;2.37;;
422;SDS011;198;48.752;9.180;2023-05-07T05:30:30;2.33;;;1.60;;
422;SDS011;198;48.752;9.180;2023-05-07T05:32:56;2.90;;;2.00;;
422;SDS011;198;48.752;9.180;2023-05-07T05:35:21;3.00;;;2.00;;
422;SDS011;198;48.752;9.180;2023-05-07T05:37:47;2.90;;;2.30;;
422;SDS011;198;48.752;9.180;2023-05-07T05:40:13;3.33;;;2.17;;
422;SDS011;198;48.752;9.180;2023-05-07T05:42:38;3.13;;;1.90;;
422;SDS011;198;48.752;9.180;2023-05-07T05:45:04;2.20;;;2.00;;
422;SDS011;198;48.752;9.180;2023-05-07T05:47:30;4.50;;;1.97;;
422;SDS011;198;48.752;9.180;2023-05-07T05:49:55;2.30;;;2.03;;
422;SDS011;198;48.752;9.180;2023-05-07T05:52:21;2.03;;;1.63;;
422;SDS011;198;48.752;9.180;2023-05-07T05:54:48;3.37;;;2.57;;
422;SDS011;198;48.752;9.180;2023-05-07T05:57:14;2.43;;;2.27;;
422;SDS011;198;48.752;9.180;2023-05-07T05:59:40;5.20;;;2.33;;
422;SDS011;198;48.752;9.180;2023-05-07T06:02:05;2.33;;;2.20;;
422;SDS011;198;48.752;9.180;2023-05-07T06:04:31;6.47;;;2.70;;
422;SDS011;198;48.752;9.180;2023-05-07T06:06:57;3.47;;;2.40;;
422;SDS011;198;48.752;9.180;2023-05-07T06:09:22;2.90;;;1.80;;
422;SDS011;198;48.752;9.180;2023-05-07T06:11:48;3.47;;;2.87;;
422;SDS011;198;48.752;9.180;2023-05-07T06:14:13;5.77;;;2.83;;
422;SDS011;198;48.752;9.180;2023-05-07T06:16:39;3.20;;;2.57;;
422;SDS011;198;48.752;9.180;2023-05-07T06:19:04;13.17;;;2.60;;
422;SDS011;198;48.752;9.180;2023-05-07T06:21:30;4.80;;;3.00;;
422;SDS011;198;48.752;9.180;2023-05-07T06:23:56;3.17;;;2.10;;
422;SDS011;198;48.752;9.180;2023-05-07T06:26:21;6.23;;;2.87;;
422;SDS011;198;48.752;9.180;2023-05-07T06:28:47;4.63;;;2.90;;
422;SDS011;198;48.752;9.180;2023-05-07T06:31:16;2.67;;;2.07;;
422;SDS011;198;48.752;9.180;2023-05-07T06:33:45;3.40;;;2.73;;
422;SDS011;198;48.752;9.180;2023-05-07T06:36:11;7.43;;;2.80;;
422;SDS011;198;48.752;9.180;2023-05-07T06:38:36;4.70;;;2.90;;
422;SDS011;198;48.752;9.180;2023-05-07T06:41:02;2.80;;;2.53;;
422;SDS011;198;48.752;9.180;2023-05-07T06:43:27;4.77;;;2.80;;
422;SDS011;198;48.752;9.180;2023-05-07T06:45:53;7.20;;;2.60;;
422;SDS011;198;48.752;9.180;2023-05-07T06:48:18;3.80;;;2.80;;
422;SDS011;198;48.752;9.180;2023-05-07T06:50:44;2.63;;;2.00;;
422;SDS011;198;48.752;9.180;2023-05-07T06:53:10;5.00;;;3.00;;
422;SDS011;198;48.752;9.180;2023-05-07T06:55:36;4.27;;;3.00;;
422;SDS011;198;48.752;9.180;2023-05-07T06:58:03;3.63;;;2.53;;
422;SDS011;198;48.752;9.180;2023-05-07T07:00:28;7.40;;;3.30;;
422;SDS011;198;48.752;9.180;2023-05-07T07:02:54;8.03;;;2.93;;
422;SDS011;198;48.752;9.180;2023-05-07T07:05:20;6.50;;;2.83;;
422;SDS011;198;48.752;9.180;2023-05-07T07:07:46;6.50;;;4.13;;
422;SDS011;198;48.752;9.180;2023-05-07T07:10:18;7.50;;;3.63;;
422;SDS011;198;48.752;9.180;2023-05-07T07:12:44;12.50;;;3.40;;
422;SDS011;198;48.752;9.180;2023-05-07T07:15:10;7.43;;;3.13;;
422;SDS011;198;48.752;9.180;2023-05-07T07:17:36;4.00;;;2.80;;
422;SDS011;198;48.752;9.180;2023-05-07T07:20:01;5.97;;;2.33;;
422;SDS011;198;48.752;9.180;2023-05-07T07:22:27;6.13;;;3.30;;
422;SDS011;198;48.752;9.180;2023-05-07T07:24:53;4.40;;;3.23;;
422;SDS011;198;48.752;9.180;2023-05-07T07:27:19;4.57;;;2.93;;
422;SDS011;198;48.752;9.180;2023-05-07T07:29:44;5.27;;;2.90;;
422;SDS011;198;48.752;9.180;2023-05-07T07:32:10;5.10;;;3.03;;
422;SDS011;198;48.752;9.180;2023-05-07T07:34:35;7.17;;;3.03;;
422;SDS011;198;48.752;9.180;2023-05-07T07:37:01;4.57;;;3.17;;
422;SDS011;198;48.752;9.180;2023-05-07T07:39:30;5.13;;;2.70;;
422;SDS011;198;48.752;9.180;2023-05-07T07:41:56;5.67;;;2.57;;
422;SDS011;198;48.752;9.180;2023-05-07T07:44:21;12.23;;;3.40;;
422;SDS011;198;48.752;9.180;2023-05-07T07:46:47;3.70;;;2.70;;
422;SDS011;198;48.752;9.180;2023-05-07T07:49:12;4.60;;;2.53;;
422;SDS011;198;48.752;9.180;2023-05-07T07:51:38;8.20;;;3.00;;
422;SDS011;198;48.752;9.180;2023-05-07T07:54:03;3.30;;;2.20;;
422;SDS011;198;48.752;9.180;2023-05-07T07:56:29;3.77;;;2.33;;
422;SDS011;198;48.752;9.180;2023-05-07T07:58:57;4.23;;;3.00;;
422;SDS011;198;48.752;9.180;2023-05-07T08:01:22;3.30;;;2.50;;
422;SDS011;198;48.752;9.180;2023-05-07T08:03:48;7.10;;;2.10;;
422;SDS011;198;48.752;9.180;2023-05-07T08:06:13;2.83;;;2.17;;
422;SDS011;198;48.752;9.180;2023-05-07T08:08:39;7.07;;;2.77;;
422;SDS011;198;48.752;9.180;2023-05-07T08:11:04;2.57;;;2.10;;
422;SDS011;198;48.752;9.180;2023-05-07T08:13:30;3.83;;;2.97;;
422;SDS011;198;48.752;9.180;2023-05-07T08:15:55;5.50;;;2.83;;
422;SDS011;198;48.752;9.180;2023-05-07T08:18:21;3.13;;;2.70;;
422;SDS011;198;48.752;9.180;2023-05-07T08:20:48;2.97;;;2.20;;
422;SDS011;198;48.752;9.180;2023-05-07T08:23:13;4.77;;;2.70;;
422;SDS011;198;48.752;9.180;2023-05-07T08:25:39;4.97;;;3.27;;
422;SDS011;198;48.752;9.180;2023-05-07T08:28:05;3.93;;;3.10;;
422;SDS011;198;48.752;9.180;2023-05-07T08:30:30;5.03;;;2.60;;
422;SDS011;198;48.752;9.180;2023-05-07T08:32:56;3.70;;;2.37;;
422;SDS011;198;48.752;9.180;2023-05-07T08:35:21;5.50;;;2.83;;
422;SDS011;198;48.752;9.180;2023-05-07T08:37:47;3.20;;;2.53;;
422;SDS011;198;48.752;9.180;2023-05-07T08:40:12;2.80;;;2.50;;
422;SDS011;198;48.752;9.180;2023-05-07T08:42:38;5.90;;;3.40;;
422;SDS011;198;48.752;9.180;2023-05-07T08:45:05;4.60;;;2.67;;
422;SDS011;198;48.752;9.180;2023-05-07T08:47:39;3.80;;;2.10;;
422;SDS011;198;48.752;9.180;2023-05-07T08:50:09;3.13;;;2.57;;
422;SDS011;198;48.752;9.180;2023-05-07T08:52:35;3.50;;;2.67;;
422;SDS011;198;48.752;9.180;2023-05-07T08:55:02;5.13;;;2.70;;
422;SDS011;198;48.752;9.180;2023-05-07T08:57:28;5.13;;;2.80;;
422;SDS011;198;48.752;9.180;2023-05-07T08:59:53;2.50;;;2.33;;
422;SDS011;198;48.752;9.180;2023-05-07T09:02:19;2.43;;;2.23;;
422;SDS011;198;48.752;9.180;2023-05-07T09:04:46;4.43;;;2.03;;
422;SDS011;198;48.752;9.180;2023-05-07T09:07:11;2.30;;;2.13;;
422;SDS011;198;48.752;9.180;2023-05-07T09:09:37;4.40;;;2.27;;
422;SDS011;198;48.752;9.180;2023-05-07T09:12:02;3.10;;;2.60;;
422;SDS011;198;48.752;9.180;2023-05-07T09:14:28;5.43;;;2.03;;
422;SDS011;198;48.752;9.180;2023-05-07T09:16:55;2.37;;;2.10;;
422;SDS011;198;48.752;9.180;2023-05-07T09:19:24;8.80;;;2.40;;
422;SDS011;198;48.752;9.180;2023-05-07T09:22:00;5.33;;;2.47;;
422;SDS011;198;48.752;9.180;2023-05-07T09:24:27;7.53;;;2.20;;
422;SDS011;198;48.752;9.180;2023-05-07T09:26:57;2.20;;;2.00;;
422;SDS011;198;48.752;9.180;2023-05-07T09:29:23;1.93;;;1.67;;
422;SDS011;198;48.752;9.180;2023-05-07T09:31:48;2.97;;;2.40;;
422;SDS011;198;48.752;9.180;2023-05-07T09:34:14;6.97;;;2.07;;
422;SDS011;198;48.752;9.180;2023-05-07T09:36:39;4.53;;;2.17;;
422;SDS011;198;48.752;9.180;2023-05-07T09:39:05;4.43;;;2.43;;
422;SDS011;198;48.752;9.180;2023-05-07T09:41:30;2.80;;;1.93;;
422;SDS011;198;48.752;9.180;2023-05-07T09:43:57;2.97;;;1.50;;
422;SDS011;198;48.752;9.180;2023-05-07T09:46:30;2.37;;;2.03;;
422;SDS011;198;48.752;9.180;2023-05-07T09:48:57;2.83;;;1.73;;
422;SDS011;198;48.752;9.180;2023-05-07T09:51:30;1.83;;;1.63;;
422;SDS011;198;48.752;9.180;2023-05-07T09:54:04;1.63;;;1.53;;
422;SDS011;198;48.752;9.180;2023-05-07T09:56:31;7.83;;;2.00;;
422;SDS011;198;48.752;9.180;2023-05-07T09:58:57;2.30;;;1.67;;
422;SDS011;198;48.752;9.180;2023-05-07T10:01:25;4.83;;;2.00;;
422;SDS011;198;48.752;9.180;2023-05-07T10:03:52;1.40;;;1.30;;
422;SDS011;198;48.752;9.180;2023-05-07T10:06:19;3.23;;;1.40;;
422;SDS011;198;48.752;9.180;2023-05-07T10:08:45;2.30;;;1.67;;
422;SDS011;198;48.752;9.180;2023-05-07T10:11:11;2.80;;;1.30;;
422;SDS011;198;48.752;9.180;2023-05-07T10:13:37;2.87;;;1.60;;
422;SDS011;198;48.752;9.180;2023-05-07T10:16:03;1.50;;;1.40;;
422;SDS011;198;48.752;9.180;2023-05-07T10:18:30;2.30;;;1.77;;
422;SDS011;198;48.752;9.180;2023-05-07T10:20:59;4.63;;;2.00;;
422;SDS011;198;48.752;9.180;2023-05-07T10:23:29;1.70;;;1.27;;
422;SDS011;198;48.752;9.180;2023-05-07T10:25:55;3.60;;;1.60;;
422;SDS011;198;48.752;9.180;2023-05-07T10:28:21;4.30;;;1.67;;
422;SDS011;198;48.752;9.180;2023-05-07T10:30:55;2.33;;;1.50;;
422;SDS011;198;48.752;9.180;2023-05-07T10:33:33;4.27;;;1.80;;
422;SDS011;198;48.752;9.180;2023-05-07T10:36:00;4.00;;;1.77;;
422;SDS011;198;48.752;9.180;2023-05-07T10:38:29;2.17;;;1.60;;
422;SDS011;198;48.752;9.180;2023-05-07T10:40:55;2.40;;;1.50;;
422;SDS011;198;48.752;9.180;2023-05-07T10:43:20;1.63;;;1.40;;
422;SDS011;198;48.752;9.180;2023-05-07T10:48:34;4.80;;;1.90;;
422;SDS011;198;48.752;9.180;2023-05-07T10:51:30;2.70;;;1.70;;
422;SDS011;198;48.752;9.180;2023-05-07T10:56:39;2.93;;;1.50;;
422;SDS011;198;48.752;9.180;2023-05-07T11:01:55;1.43;;;1.40;;
422;SDS011;198;48.752;9.180;2023-05-07T11:04:24;1.10;;;1.00;;
422;SDS011;198;48.752;9.180;2023-05-07T11:13:03;2.20;;;1.53;;
422;SDS011;198;48.752;9.180;2023-05-07T11:15:06;1.97;;;1.67;;
422;SDS011;198;48.752;9.180;2023-05-07T11:17:33;3.67;;;1.50;;
422;SDS011;198;48.752;9.180;2023-05-07T11:20:00;7.50;;;1.67;;
422;SDS011;198;48.752;9.180;2023-05-07T11:24:56;2.63;;;1.60;;
422;SDS011;198;48.752;9.180;2023-05-07T11:27:25;4.07;;;1.93;;
422;SDS011;198;48.752;9.180;2023-05-07T11:29:51;3.10;;;1.70;;
422;SDS011;198;48.752;9.180;2023-05-07T11:32:28;2.97;;;1.90;;
422;SDS011;198;48.752;9.180;2023-05-07T11:34:55;2.47;;;1.53;;
422;SDS011;198;48.752;9.180;2023-05-07T11:37:22;1.80;;;1.70;;
422;SDS011;198;48.752;9.180;2023-05-07T11:39:49;5.90;;;2.17;;
422;SDS011;198;48.752;9.180;2023-05-07T11:42:29;2.30;;;1.77;;
422;SDS011;198;48.752;9.180;2023-05-07T11:44:55;2.47;;;2.10;;
422;SDS011;198;48.752;9.180;2023-05-07T11:47:21;7.10;;;2.30;;
422;SDS011;198;48.752;9.180;2023-05-07T11:49:53;2.53;;;2.17;;
422;SDS011;198;48.752;9.180;2023-05-07T11:52:20;3.20;;;1.80;;
422;SDS011;198;48.752;9.180;2023-05-07T11:54:50;5.63;;;1.87;;
422;SDS011;198;48.752;9.180;2023-05-07T11:57:17;3.07;;;1.60;;
422;SDS011;198;48.752;9.180;2023-05-07T11:59:43;1.93;;;1.70;;
422;SDS011;198;48.752;9.180;2023-05-07T12:02:09;5.00;;;1.80;;
422;SDS011;198;48.752;9.180;2023-05-07T12:04:35;2.53;;;1.93;;
422;SDS011;198;48.752;9.180;2023-05-07T12:07:02;3.07;;;2.23;;
422;SDS011;198;48.752;9.180;2023-05-07T12:09:28;2.50;;;1.70;;
422;SDS011;198;48.752;9.180;2023-05-07T12:11:53;2.40;;;2.20;;
422;SDS011;198;48.752;9.180;2023-05-07T12:14:21;3.40;;;1.83;;
422;SDS011;198;48.752;9.180;2023-05-07T12:16:46;1.93;;;1.90;;
422;SDS011;198;48.752;9.180;2023-05-07T12:19:12;4.23;;;2.50;;
422;SDS011;198;48.752;9.180;2023-05-07T12:21:38;2.47;;;1.77;;
422;SDS011;198;48.752;9.180;2023-05-07T12:24:05;1.30;;;1.20;;
422;SDS011;198;48.752;9.180;2023-05-07T12:26:30;1.70;;;1.17;;
422;SDS011;198;48.752;9.180;2023-05-07T12:28:59;2.83;;;1.30;;
422;SDS011;198;48.752;9.180;2023-05-07T12:31:27;1.40;;;1.40;;
422;SDS011;198;48.752;9.180;2023-05-07T12:33:53;2.50;;;1.80;;
422;SDS011;198;48.752;9.180;2023-05-07T12:36:18;1.93;;;1.60;;
422;SDS011;198;48.752;9.180;2023-05-07T12:38:46;4.57;;;1.73;;
422;SDS011;198;48.752;9.180;2023-05-07T12:41:14;3.80;;;2.10;;
422;SDS011;198;48.752;9.180;2023-05-07T12:43:41;2.33;;;1.90;;
422;SDS011;198;48.752;9.180;2023-05-07T12:46:09;8.37;;;1.87;;
422;SDS011;198;48.752;9.180;2023-05-07T12:48:38;4.37;;;1.90;;
422;SDS011;198;48.752;9.180;2023-05-07T12:51:08;8.50;;;3.03;;
422;SDS011;198;48.752;9.180;2023-05-07T12:53:39;9.13;;;1.50;;
422;SDS011;198;48.752;9.180;2023-05-07T12:56:07;5.90;;;1.27;;
422;SDS011;198;48.752;9.180;2023-05-07T12:58:33;2.17;;;1.00;;
422;SDS011;198;48.752;9.180;2023-05-07T13:01:01;3.20;;;1.33;;
422;SDS011;198;48.752;9.180;2023-05-07T13:03:31;2.60;;;1.37;;
422;SDS011;198;48.752;9.180;2023-05-07T13:06:01;5.10;;;1.73;;
422;SDS011;198;48.752;9.180;2023-05-07T13:08:41;6.43;;;1.73;;
422;SDS011;198;48.752;9.180;2023-05-07T13:11:10;11.47;;;2.67;;
422;SDS011;198;48.752;9.180;2023-05-07T13:13:37;5.30;;;1.60;;
422;SDS011;198;48.752;9.180;2023-05-07T13:16:04;5.37;;;1.50;;
422;SDS011;198;48.752;9.180;2023-05-07T13:18:30;3.23;;;1.40;;
422;SDS011;198;48.752;9.180;2023-05-07T13:20:56;2.80;;;1.43;;
422;SDS011;198;48.752;9.180;2023-05-07T13:23:23;2.47;;;1.33;;
422;SDS011;198;48.752;9.180;2023-05-07T13:25:49;4.70;;;1.43;;
422;SDS011;198;48.752;9.180;2023-05-07T13:28:15;1.97;;;1.63;;
422;SDS011;198;48.752;9.180;2023-05-07T13:30:41;8.50;;;2.30;;
422;SDS011;198;48.752;9.180;2023-05-07T13:33:06;4.07;;;1.17;;
422;SDS011;198;48.752;9.180;2023-05-07T13:35:32;1.80;;;1.17;;
422;SDS011;198;48.752;9.180;2023-05-07T13:37:58;4.10;;;1.60;;
422;SDS011;198;48.752;9.180;2023-05-07T13:40:24;1.90;;;1.47;;
422;SDS011;198;48.752;9.180;2023-05-07T13:42:49;3.10;;;1.73;;
422;SDS011;198;48.752;9.180;2023-05-07T13:45:15;1.73;;;1.10;;
422;SDS011;198;48.752;9.180;2023-05-07T13:47:42;1.10;;;0.90;;
422;SDS011;198;48.752;9.180;2023-05-07T13:50:09;0.93;;;0.90;;
422;SDS011;198;48.752;9.180;2023-05-07T13:52:36;6.67;;;1.40;;
422;SDS011;198;48.752;9.180;2023-05-07T13:55:02;0.90;;;0.80;;
422;SDS011;198;48.752;9.180;2023-05-07T13:57:28;6.20;;;0.90;;
422;SDS011;198;48.752;9.180;2023-05-07T13:59:53;5.20;;;1.70;;
422;SDS011;198;48.752;9.180;2023-05-07T14:02:19;1.90;;;1.33;;
422;SDS011;198;48.752;9.180;2023-05-07T14:04:44;3.50;;;2.00;;
422;SDS011;198;48.752;9.180;2023-05-07T14:07:10;3.63;;;1.70;;
422;SDS011;198;48.752;9.180;2023-05-07T14:09:35;11.47;;;2.27;;
422;SDS011;198;48.752;9.180;2023-05-07T14:12:01;7.70;;;2.33;;
422;SDS011;198;48.752;9.180;2023-05-07T14:14:26;8.97;;;2.80;;
422;SDS011;198;48.752;9.180;2023-05-07T14:16:52;5.10;;;2.80;;
422;SDS011;198;48.752;9.180;2023-05-07T14:19:18;3.30;;;2.80;;
422;SDS011;198;48.752;9.180;2023-05-07T14:21:43;3.43;;;2.30;;
422;SDS011;198;48.752;9.180;2023-05-07T14:24:09;12.90;;;3.40;;
422;SDS011;198;48.752;9.180;2023-05-07T14:26:35;14.17;;;3.30;;
422;SDS011;198;48.752;9.180;2023-05-07T14:29:01;5.63;;;2.63;;
422;SDS011;198;48.752;9.180;2023-05-07T14:31:26;5.40;;;3.33;;
422;SDS011;198;48.752;9.180;2023-05-07T14:33:52;7.50;;;3.13;;
422;SDS011;198;48.752;9.180;2023-05-07T14:36:18;6.40;;;2.83;;
422;SDS011;198;48.752;9.180;2023-05-07T14:38:47;3.50;;;2.73;;
422;SDS011;198;48.752;9.180;2023-05-07T14:41:13;2.40;;;2.10;;
422;SDS011;198;48.752;9.180;2023-05-07T14:43:39;4.17;;;2.30;;
422;SDS011;198;48.752;9.180;2023-05-07T14:46:04;7.17;;;2.50;;
422;SDS011;198;48.752;9.180;2023-05-07T14:48:30;6.60;;;2.40;;
422;SDS011;198;48.752;9.180;2023-05-07T14:50:55;2.47;;;2.27;;
422;SDS011;198;48.752;9.180;2023-05-07T14:53:21;2.57;;;1.70;;
422;SDS011;198;48.752;9.180;2023-05-07T14:55:47;2.40;;;2.00;;
422;SDS011;198;48.752;9.180;2023-05-07T14:58:13;5.23;;;2.40;;
422;SDS011;198;48.752;9.180;2023-05-07T15:00:38;6.03;;;1.77;;
422;SDS011;198;48.752;9.180;2023-05-07T15:03:05;1.93;;;1.40;;
422;SDS011;198;48.752;9.180;2023-05-07T15:05:31;1.90;;;1.70;;
422;SDS011;198;48.752;9.180;2023-05-07T15:07:57;4.00;;;1.70;;
422;SDS011;198;48.752;9.180;2023-05-07T15:10:23;1.93;;;1.70;;
422;SDS011;198;48.752;9.180;2023-05-07T15:12:49;1.20;;;1.10;;
422;SDS011;198;48.752;9.180;2023-05-07T15:15:14;1.40;;;1.30;;
422;SDS011;198;48.752;9.180;2023-05-07T15:17:40;1.20;;;1.10;;
422;SDS011;198;48.752;9.180;2023-05-07T15:20:06;1.90;;;1.20;;
422;SDS011;198;48.752;9.180;2023-05-07T15:22:32;3.40;;;1.53;;
422;SDS011;198;48.752;9.180;2023-05-07T15:24:59;1.00;;;0.90;;
422;SDS011;198;48.752;9.180;2023-05-07T15:27:24;3.43;;;1.40;;
422;SDS011;198;48.752;9.180;2023-05-07T15:29:50;1.70;;;1.60;;
422;SDS011;198;48.752;9.180;2023-05-07T15:32:16;1.23;;;1.13;;
422;SDS011;198;48.752;9.180;2023-05-07T15:34:41;11.50;;;1.37;;
422;SDS011;198;48.752;9.180;2023-05-07T15:37:07;1.50;;;1.27;;
422;SDS011;198;48.752;9.180;2023-05-07T15:39:32;1.67;;;1.53;;
422;SDS011;198;48.752;9.180;2023-05-07T15:41:58;3.90;;;1.83;;
422;SDS011;198;48.752;9.180;2023-05-07T15:44:23;3.30;;;2.13;;
422;SDS011;198;48.752;9.180;2023-05-07T15:46:52;2.43;;;2.20;;
422;SDS011;198;48.752;9.180;2023-05-07T15:49:18;2.67;;;2.17;;
422;SDS011;198;48.752;9.180;2023-05-07T15:51:43;3.40;;;2.07;;
422;SDS011;198;48.752;9.180;2023-05-07T15:54:09;5.83;;;1.73;;
422;SDS011;198;48.752;9.180;2023-05-07T15:56:34;3.03;;;2.07;;